Time;durP1;ratioP1;P1;durP2;ratioP2;P2;SDS_P1;SDS_P2;PMS_P1;PMS_P2;Temp;Humidity;BMP_temperature;BMP_pressure;BME280_temperature;BME280_humidity;BME280_pressure;Samples;Min_cycle;Max_cycle;Signal;HPM_P1;HPM_P2
2022/01/16 00:00:26;;;;;;;23.25;16.08;;;;;;;2.46;62.20;102577.78;2571335;23;20495;-68
2022/01/16 00:05:05;;;;;;;21.20;15.68;;;;;;;2.32;63.08;102579.94;2571619;23;20490;-67
2022/01/16 00:06:06;;;;;;;22.33;16.02;;;;;;;1.88;62.80;102505.84;2571252;23;20156;-68
2022/01/16 00:07:06;;;;;;;21.47;16.00;;;;;;;2.29;62.54;102569.69;2571160;23;20187;-68
2022/01/16 00:08:07;;;;;;;21.87;15.10;;;;;;;2.34;62.91;102574.16;2571310;23;20171;-67
2022/01/16 00:09:08;;;;;;;21.33;15.50;;;;;;;2.37;62.49;102576.25;2571199;23;20148;-68
2022/01/16 00:10:10;;;;;;;19.65;15.00;;;;;;;1.70;62.42;102468.78;2571263;23;20156;-68
2022/01/16 00:11:12;;;;;;;19.80;15.25;;;;;;;2.32;62.24;102587.38;2571240;23;20597;-68
2022/01/16 00:12:13;;;;;;;17.95;15.15;;;;;;;1.98;62.21;102519.97;2571309;23;20137;-67
2022/01/16 00:13:14;;;;;;;22.63;16.05;;;;;;;2.49;62.50;102588.09;2571152;23;20171;-68
2022/01/16 00:14:14;;;;;;;20.37;15.43;;;;;;;2.29;62.16;102553.25;2571285;23;20151;-68
2022/01/16 00:15:16;;;;;;;20.53;15.93;;;;;;;1.92;61.75;102482.19;2571320;23;20144;-68
2022/01/16 00:16:17;;;;;;;19.70;15.05;;;;;;;2.58;62.00;102585.28;2571172;23;20148;-68
2022/01/16 00:17:21;;;;;;;22.47;16.07;;;;;;;2.27;61.74;102560.97;2571164;23;20590;-68
2022/01/16 00:18:27;;;;;;;19.98;15.60;;;;;;;2.15;61.57;102541.75;2571265;23;20146;-68
2022/01/16 00:19:27;;;;;;;21.25;15.23;;;;;;;1.92;61.91;102515.00;2571379;23;20164;-68
2022/01/16 00:20:28;;;;;;;21.13;15.37;;;;;;;1.74;62.33;102522.47;2571191;23;20153;-68
2022/01/16 00:21:31;;;;;;;18.70;14.20;;;;;;;2.20;62.83;102595.44;2571241;23;20144;-68
2022/01/16 00:22:37;;;;;;;21.20;15.02;;;;;;;2.23;62.83;102594.81;2557903;23;20161;-68
2022/01/16 00:23:37;;;;;;;20.88;14.30;;;;;;;2.18;62.92;102584.03;2558973;23;20142;-68
2022/01/16 00:24:38;;;;;;;19.43;14.53;;;;;;;2.09;62.73;102577.81;2571190;23;20183;-67
2022/01/16 00:25:38;;;;;;;19.13;13.97;;;;;;;2.10;63.52;102615.00;2571213;23;20180;-68
2022/01/16 00:26:40;;;;;;;19.40;15.27;;;;;;;2.12;63.31;102634.59;2571153;23;20153;-68
2022/01/16 00:27:41;;;;;;;21.33;15.68;;;;;;;1.97;63.92;102625.00;2571165;23;20152;-68
2022/01/16 00:28:42;;;;;;;18.93;14.90;;;;;;;1.87;63.96;102608.94;2571189;23;20610;-68
2022/01/16 00:29:42;;;;;;;19.83;14.67;;;;;;;1.98;64.07;102625.78;2571196;23;20148;-68
2022/01/16 00:30:43;;;;;;;19.23;14.90;;;;;;;1.33;64.03;102524.16;2571078;23;20638;-68
2022/01/16 00:31:44;;;;;;;20.03;14.80;;;;;;;1.95;63.71;102623.72;2571222;23;20183;-68
2022/01/16 00:32:46;;;;;;;22.50;15.20;;;;;;;2.07;63.74;102652.00;2571026;23;20155;-68
2022/01/16 00:33:46;;;;;;;20.60;15.27;;;;;;;2.11;63.32;102660.34;2571107;23;20226;-68
2022/01/16 00:34:47;;;;;;;20.40;14.47;;;;;;;1.55;63.61;102567.69;2571079;23;20259;-68
2022/01/16 00:35:47;;;;;;;19.13;14.37;;;;;;;2.10;63.87;102650.53;2571393;23;20203;-68
2022/01/16 00:36:49;;;;;;;19.33;14.53;;;;;;;1.60;63.37;102567.53;2571160;23;20152;-68
2022/01/16 00:37:52;;;;;;;18.30;14.20;;;;;;;2.15;63.63;102610.13;2570284;23;20152;-68
2022/01/16 00:38:53;;;;;;;19.48;14.90;;;;;;;0.65;63.58;102349.59;2570415;23;20175;-68
2022/01/16 00:39:54;;;;;;;20.30;14.07;;;;;;;1.74;63.73;102491.56;2571094;23;20274;-68
2022/01/16 00:40:54;;;;;;;17.83;13.60;;;;;;;1.30;63.60;102410.13;2571172;23;20152;-68
2022/01/16 00:41:55;;;;;;;18.33;14.20;;;;;;;2.16;63.78;102548.03;2571121;23;20234;-68
2022/01/16 00:42:57;;;;;;;19.70;14.43;;;;;;;2.08;63.51;102557.88;2571318;23;20152;-67
2022/01/16 00:43:57;;;;;;;17.95;13.95;;;;;;;1.69;64.00;102519.13;2570985;23;20519;-68
2022/01/16 00:44:58;;;;;;;17.57;13.80;;;;;;;2.13;63.82;102587.78;2571105;23;20194;-68
2022/01/16 00:45:58;;;;;;;21.13;15.20;;;;;;;2.20;63.86;102614.59;2571076;23;20539;-68
2022/01/16 00:46:58;;;;;;;19.30;13.37;;;;;;;1.69;63.58;102502.72;2571113;23;20496;-68
2022/01/16 00:48:03;;;;;;;17.90;13.63;;;;;;;2.26;63.49;102564.84;2571169;23;20188;-68
2022/01/16 00:49:04;;;;;;;20.05;13.65;;;;;;;2.29;63.43;102545.06;2571079;23;20234;-68
2022/01/16 00:50:05;;;;;;;18.37;13.93;;;;;;;2.28;63.10;102524.31;2571089;23;20148;-68
2022/01/16 00:51:06;;;;;;;18.00;13.70;;;;;;;1.41;63.27;102387.56;2557851;23;20585;-68
2022/01/16 00:52:09;;;;;;;18.20;13.73;;;;;;;2.22;63.21;102519.34;2557966;23;20156;-68
2022/01/16 00:53:09;;;;;;;17.73;13.27;;;;;;;2.22;63.57;102538.50;2570244;23;20247;-68
2022/01/16 00:54:10;;;;;;;17.60;13.57;;;;;;;2.23;63.33;102557.31;2570388;23;20152;-68
2022/01/16 00:55:11;;;;;;;17.30;13.20;;;;;;;2.27;63.00;102571.13;2571103;23;20149;-68
2022/01/16 00:56:13;;;;;;;19.47;13.70;;;;;;;2.06;63.72;102527.28;2571058;23;20153;-68
2022/01/16 00:57:13;;;;;;;18.88;13.18;;;;;;;2.31;63.01;102511.91;2570998;23;20153;-68
2022/01/16 00:58:14;;;;;;;15.90;12.20;;;;;;;1.60;63.40;102382.47;2571110;23;20207;-68
2022/01/16 00:59:14;;;;;;;18.40;13.70;;;;;;;2.15;63.63;102445.19;2571118;23;20176;-68
2022/01/16 01:00:15;;;;;;;17.90;13.37;;;;;;;1.67;64.22;102357.38;2571086;23;20156;-68
2022/01/16 01:01:16;;;;;;;18.85;13.70;;;;;;;1.91;64.17;102410.28;2570180;23;20153;-68
2022/01/16 01:02:16;;;;;;;16.10;13.53;;;;;;;2.08;64.04;102442.19;2570480;23;20173;-68
2022/01/16 01:03:17;;;;;;;18.73;13.63;;;;;;;1.94;63.68;102436.16;2571177;23;20587;-68
2022/01/16 01:04:18;;;;;;;18.23;14.13;;;;;;;1.71;63.52;102399.31;2570956;23;20180;-68
2022/01/16 01:05:18;;;;;;;18.40;13.87;;;;;;;2.00;63.68;102448.53;2557688;23;20158;-68
2022/01/16 01:06:19;;;;;;;18.03;14.27;;;;;;;1.25;63.84;102334.63;2557873;23;20145;-68
2022/01/16 01:07:19;;;;;;;18.23;13.90;;;;;;;1.59;63.15;102402.75;2571034;23;20223;-68
2022/01/16 01:08:20;;;;;;;18.40;13.33;;;;;;;2.16;63.87;102487.84;2570994;23;20216;-67
2022/01/16 01:09:21;;;;;;;17.53;13.60;;;;;;;2.15;64.01;102484.31;2571122;23;20223;-68
2022/01/16 01:10:29;;;;;;;17.43;13.83;;;;;;;2.17;63.76;102481.25;2557665;23;20185;-68
2022/01/16 01:11:31;;;;;;;17.42;14.13;;;;;;;2.22;63.97;102490.03;2559456;23;20256;-68
2022/01/16 01:12:51;;;;;;;19.13;13.73;;;;;;;2.19;63.08;102500.84;2557696;23;20592;-68
2022/01/16 01:14:39;;;;;;;17.42;13.57;;;;;;;2.18;63.48;102502.81;2562109;23;20143;-68
2022/01/16 01:15:15;;;;;;;18.70;14.05;;;;;;;0.78;63.58;102300.28;2554729;23;20223;-68
2022/01/16 01:16:16;;;;;;;18.07;14.10;;;;;;;1.99;64.13;102512.53;2571047;23;20151;-68
2022/01/16 01:17:23;;;;;;;17.70;13.63;;;;;;;1.49;64.54;102478.84;2571147;23;20158;-68
2022/01/16 01:18:24;;;;;;;17.90;13.52;;;;;;;1.72;64.54;102545.78;2571026;23;20140;-68
2022/01/16 01:19:31;;;;;;;20.43;14.60;;;;;;;1.85;64.77;102561.19;2570966;23;20152;-68
2022/01/16 01:20:32;;;;;;;18.85;13.73;;;;;;;1.70;64.75;102529.69;2571011;23;20359;-68
2022/01/16 01:21:33;;;;;;;16.63;12.87;;;;;;;1.94;64.29;102551.00;2571001;23;20223;-68
2022/01/16 01:22:34;;;;;;;17.50;12.88;;;;;;;1.99;64.20;102539.88;2571004;23;20156;-68
2022/01/16 01:23:34;;;;;;;17.43;13.73;;;;;;;2.04;63.74;102529.56;2571074;23;20214;-68
2022/01/16 01:24:36;;;;;;;19.23;13.23;;;;;;;2.09;63.84;102525.84;2557704;23;20651;-68
2022/01/16 01:25:38;;;;;;;18.63;13.50;;;;;;;2.10;63.94;102536.47;2557896;23;20161;-68
2022/01/16 01:26:49;;;;;;;19.55;13.02;;;;;;;2.10;64.14;102544.66;2570976;23;20148;-68
2022/01/16 01:27:50;;;;;;;17.65;13.63;;;;;;;2.13;63.90;102548.66;2570946;23;20136;-68
2022/01/16 01:28:51;;;;;;;16.67;13.35;;;;;;;2.11;63.62;102562.66;2570829;23;20239;-68
2022/01/16 01:30:01;;;;;;;18.30;14.30;;;;;;;1.54;63.78;102467.72;2570886;23;20148;-68
2022/01/16 01:31:01;;;;;;;18.33;13.27;;;;;;;1.99;63.41;102529.75;2570932;23;20136;-67
2022/01/16 01:32:02;;;;;;;17.93;13.53;;;;;;;2.14;63.66;102542.06;2570893;23;20159;-67
2022/01/16 01:33:03;;;;;;;17.77;13.43;;;;;;;1.71;63.64;102473.13;2570934;23;20202;-68
2022/01/16 01:34:03;;;;;;;16.97;12.20;;;;;;;1.87;63.49;102487.84;2571090;23;20151;-68
2022/01/16 01:35:07;;;;;;;17.80;12.90;;;;;;;2.16;63.85;102543.34;2570964;23;20228;-68
2022/01/16 01:36:07;;;;;;;16.63;13.20;;;;;;;2.13;63.23;102544.00;2570915;23;20602;-68
2022/01/16 01:37:08;;;;;;;16.90;12.73;;;;;;;2.14;63.63;102537.41;2570775;23;20175;-68
2022/01/16 01:38:11;;;;;;;18.53;14.10;;;;;;;1.44;63.34;102418.91;2570882;23;20156;-68
2022/01/16 01:39:11;;;;;;;17.88;13.38;;;;;;;1.90;62.95;102503.59;2570917;23;20251;-68
2022/01/16 01:40:21;;;;;;;16.23;12.63;;;;;;;2.18;62.92;102551.22;2570898;23;20216;-67
2022/01/16 01:41:22;;;;;;;16.58;12.80;;;;;;;2.15;63.34;102549.13;2570126;23;20643;-67
2022/01/16 01:42:30;;;;;;;16.10;13.10;;;;;;;2.02;63.58;102555.63;2570212;23;20523;-68
2022/01/16 01:51:15;;;;;;;17.48;12.88;;;;;;;2.10;62.86;102547.41;2570900;23;20137;-68
2022/01/16 01:52:17;;;;;;;16.52;12.55;;;;;;;2.10;63.47;102552.09;2570930;23;20149;-68
2022/01/16 01:53:17;;;;;;;15.52;12.25;;;;;;;2.11;63.67;102567.34;2570835;23;20144;-68
2022/01/16 01:54:18;;;;;;;16.43;12.77;;;;;;;2.13;64.20;102584.22;2557556;23;20595;-68
2022/01/16 01:55:18;;;;;;;15.47;12.73;;;;;;;2.15;63.24;102569.09;2557711;23;20165;-68
2022/01/16 01:56:21;;;;;;;16.13;13.17;;;;;;;2.18;63.83;102582.13;2570993;23;20149;-68
2022/01/16 01:57:22;;;;;;;19.20;12.60;;;;;;;2.21;63.12;102588.88;2569870;23;20602;-68
2022/01/16 01:58:22;;;;;;;16.17;12.47;;;;;;;1.79;62.69;102532.41;2570068;23;20581;-68
2022/01/16 01:59:23;;;;;;;17.77;13.47;;;;;;;2.25;62.25;102581.59;2570782;23;20227;-68
2022/01/16 02:00:24;;;;;;;15.43;12.40;;;;;;;2.24;62.89;102572.59;2557427;23;20157;-68
2022/01/16 02:01:27;;;;;;;17.57;13.00;;;;;;;2.28;62.51;102557.13;2557761;23;20233;-68
2022/01/16 02:02:34;;;;;;;19.05;13.15;;;;;;;2.27;62.59;102555.50;2570821;23;20144;-68
2022/01/16 02:04:36;;;;;;;16.27;12.43;;;;;;;2.20;62.56;102568.91;2570703;23;20184;-68
2022/01/16 02:05:37;;;;;;;16.80;12.70;;;;;;;2.20;62.41;102579.84;2570831;23;20611;-68
2022/01/16 02:06:37;;;;;;;17.50;13.07;;;;;;;2.26;62.25;102583.22;2570748;23;20621;-68
2022/01/16 02:07:38;;;;;;;15.67;12.20;;;;;;;2.23;62.36;102567.44;2570834;23;20498;-68
2022/01/16 02:08:38;;;;;;;15.90;12.33;;;;;;;1.82;62.33;102502.50;2570925;23;20156;-68
2022/01/16 02:09:39;;;;;;;16.93;12.73;;;;;;;2.13;62.80;102548.66;2570842;23;20172;-68
2022/01/16 02:10:41;;;;;;;17.60;12.37;;;;;;;1.50;63.00;102462.09;2557388;23;20582;-68
2022/01/16 02:11:42;;;;;;;16.02;12.18;;;;;;;2.10;63.36;102568.50;2557683;23;20726;-68
2022/01/16 02:12:45;;;;;;;18.45;12.93;;;;;;;1.33;63.29;102478.53;2570241;23;20160;-68
2022/01/16 02:14:01;;;;;;;16.50;12.63;;;;;;;1.83;64.03;102579.84;2570738;23;20812;-68
2022/01/16 02:15:28;;;;;;;16.95;12.85;;;;;;;1.17;64.03;102463.81;2570892;23;20132;-68
2022/01/16 02:28:29;;;;;;;14.73;11.60;;;;;;;1.29;66.91;102569.66;2570886;23;20137;-68
2022/01/16 02:31:38;;;;;;;15.85;11.60;;;;;;;1.21;67.01;102568.56;2570681;23;20206;-69
2022/01/16 02:32:50;;;;;;;14.80;11.40;;;;;;;0.72;67.12;102480.91;2570687;23;20155;-68
2022/01/16 02:35:12;;;;;;;17.05;11.73;;;;;;;1.23;67.16;102560.81;2562053;23;20595;-68
2022/01/16 02:36:27;;;;;;;16.13;12.40;;;;;;;1.20;67.46;102555.22;2570691;23;20199;-68
2022/01/16 02:37:27;;;;;;;15.18;12.20;;;;;;;0.99;67.62;102519.56;2570729;23;20755;-68
2022/01/16 02:38:28;;;;;;;17.77;12.33;;;;;;;1.15;67.81;102553.47;2570612;23;20173;-68
2022/01/16 02:39:30;;;;;;;17.13;11.97;;;;;;;1.15;67.84;102550.72;2570742;23;20605;-68
2022/01/16 02:40:31;;;;;;;15.63;12.45;;;;;;;1.10;67.92;102550.88;2569671;23;20185;-68
2022/01/16 02:41:32;;;;;;;17.93;13.03;;;;;;;1.13;67.81;102555.69;2569920;23;20155;-68
2022/01/16 02:42:37;;;;;;;15.67;12.87;;;;;;;1.11;67.71;102549.75;2570697;23;20147;-68
2022/01/16 02:43:44;;;;;;;16.30;13.05;;;;;;;0.82;67.81;102497.72;2570546;23;20140;-68
2022/01/16 02:44:50;;;;;;;17.73;12.77;;;;;;;1.06;68.32;102554.56;2570713;23;20215;-68
2022/01/16 02:46:08;;;;;;;16.80;12.63;;;;;;;0.53;67.87;102464.81;2570563;23;20227;-68
2022/01/16 02:47:14;;;;;;;15.50;12.25;;;;;;;1.02;67.88;102540.75;2570687;23;20148;-68
2022/01/16 02:48:15;;;;;;;15.23;12.07;;;;;;;0.09;68.34;102407.84;2570843;23;20587;-68
2022/01/16 02:49:22;;;;;;;17.70;12.77;;;;;;;1.03;68.27;102555.22;2570659;23;20543;-68
2022/01/16 02:50:23;;;;;;;17.08;12.38;;;;;;;0.96;68.04;102544.78;2570709;23;20155;-68
2022/01/16 02:51:26;;;;;;;17.37;11.50;;;;;;;1.00;68.35;102548.47;2570571;23;20185;-68
2022/01/16 02:52:27;;;;;;;17.52;12.40;;;;;;;0.93;68.60;102537.22;2570573;23;20159;-68
2022/01/16 02:53:27;;;;;;;16.43;12.67;;;;;;;0.31;68.22;102448.59;2570671;23;20155;-68
2022/01/16 02:54:31;;;;;;;16.83;11.90;;;;;;;0.36;68.57;102459.34;2570581;23;20222;-68
2022/01/16 02:55:31;;;;;;;19.10;12.30;;;;;;;0.55;68.06;102489.88;2570540;23;20210;-68
2022/01/16 02:56:35;;;;;;;17.03;12.67;;;;;;;0.95;68.48;102548.66;2570633;23;20708;-68
2022/01/16 02:57:36;;;;;;;16.10;12.32;;;;;;;0.65;67.71;102497.75;2570564;23;20147;-67
2022/01/16 02:58:36;;;;;;;16.38;12.25;;;;;;;0.94;68.35;102540.78;2570543;23;20155;-68
2022/01/16 02:59:38;;;;;;;16.20;11.43;;;;;;;1.00;68.28;102553.94;2570599;23;20657;-68
2022/01/16 03:00:38;;;;;;;15.15;12.07;;;;;;;0.98;68.46;102545.25;2570628;23;20160;-68
2022/01/16 03:01:39;;;;;;;17.73;12.77;;;;;;;0.93;68.56;102548.16;2570546;23;20704;-68
2022/01/16 03:02:39;;;;;;;15.43;11.83;;;;;;;0.93;68.55;102545.41;2570592;23;20151;-68
2022/01/16 03:03:40;;;;;;;16.00;12.10;;;;;;;0.93;68.59;102548.16;2570527;23;20151;-68
2022/01/16 03:04:41;;;;;;;16.47;12.80;;;;;;;0.97;68.75;102556.50;2570529;23;20488;-68
2022/01/16 03:05:41;;;;;;;16.33;12.57;;;;;;;0.94;68.70;102549.75;2570658;23;20174;-68
2022/01/16 03:06:42;;;;;;;16.00;12.27;;;;;;;0.63;68.53;102489.06;2557339;23;20160;-68
2022/01/16 03:07:44;;;;;;;16.87;12.77;;;;;;;0.93;68.53;102534.50;2557427;23;20184;-68
2022/01/16 03:08:44;;;;;;;18.63;12.75;;;;;;;0.88;68.74;102528.41;2570610;23;20162;-68
2022/01/16 03:10:18;;;;;;;16.23;12.37;;;;;;;0.34;68.67;102461.63;2570545;23;20178;-68
2022/01/16 03:11:35;;;;;;;16.40;12.27;;;;;;;0.96;68.78;102550.25;2569526;23;20207;-68
2022/01/16 03:12:35;;;;;;;16.73;11.88;;;;;;;0.23;68.41;102459.50;2569988;23;20154;-68
2022/01/16 03:13:40;;;;;;;16.90;11.33;;;;;;;0.94;68.87;102552.47;2570545;23;20155;-68
2022/01/16 03:14:40;;;;;;;17.08;12.07;;;;;;;1.01;68.46;102549.28;2570523;23;20175;-68
2022/01/16 03:15:41;;;;;;;16.40;11.77;;;;;;;1.02;68.73;102580.91;2570645;23;20151;-67
2022/01/16 03:16:46;;;;;;;13.90;11.17;;;;;;;1.03;68.35;102552.50;2570605;23;20151;-68
2022/01/16 03:22:02;;;;;;;16.33;11.95;;;;;;;1.08;68.38;102544.16;2570559;23;20136;-68
2022/01/16 03:23:03;;;;;;;16.83;12.25;;;;;;;0.35;68.19;102448.75;2570756;23;20140;-68
2022/01/16 03:24:04;;;;;;;14.33;11.53;;;;;;;1.03;68.56;102545.09;2570522;23;20179;-68
2022/01/16 03:25:05;;;;;;;17.10;12.27;;;;;;;1.06;68.74;102552.66;2570550;23;20176;-68
2022/01/16 03:26:05;;;;;;;18.77;13.03;;;;;;;0.40;68.39;102459.50;2570829;23;20157;-67
2022/01/16 03:27:10;;;;;;;18.60;13.43;;;;;;;0.59;68.26;102473.66;2570618;23;20163;-68
2022/01/16 03:28:11;;;;;;;17.33;12.82;;;;;;;0.61;67.97;102466.75;2570539;23;20143;-68
2022/01/16 03:29:12;;;;;;;20.80;13.00;;;;;;;1.12;68.16;102540.44;2570493;23;20187;-67
2022/01/16 03:30:13;;;;;;;15.87;12.30;;;;;;;0.53;68.33;102470.28;2570586;23;20151;-67
2022/01/16 03:31:14;;;;;;;15.23;12.48;;;;;;;0.92;67.96;102516.50;2570660;23;20157;-68
2022/01/16 03:32:17;;;;;;;17.30;12.63;;;;;;;1.17;67.79;102558.56;2570642;23;20155;-68
2022/01/16 03:33:20;;;;;;;14.07;11.98;;;;;;;1.15;68.07;102563.56;2557262;23;20184;-68
2022/01/16 03:34:20;;;;;;;15.00;11.98;;;;;;;1.19;67.85;102559.84;2557751;23;20538;-68
2022/01/16 03:35:21;;;;;;;16.87;12.73;;;;;;;0.50;67.56;102454.56;2570548;23;20218;-68
2022/01/16 03:36:22;;;;;;;17.23;12.40;;;;;;;0.98;67.68;102545.25;2570572;23;20219;-68
2022/01/16 03:37:23;;;;;;;17.63;12.52;;;;;;;0.44;67.25;102436.75;2570819;23;20152;-68
2022/01/16 03:38:23;;;;;;;15.80;12.20;;;;;;;1.27;67.46;102564.53;2570595;23;20155;-68
2022/01/16 03:39:24;;;;;;;17.00;12.63;;;;;;;1.22;67.52;102567.41;2570734;23;20147;-68
2022/01/16 03:40:25;;;;;;;15.53;11.47;;;;;;;1.12;67.95;102553.28;2570489;23;20179;-68
2022/01/16 03:41:29;;;;;;;15.00;11.63;;;;;;;0.44;67.64;102442.22;2570684;23;20530;-68
2022/01/16 03:42:32;;;;;;;16.35;12.25;;;;;;;0.40;67.34;102446.69;2557237;23;20152;-68
2022/01/16 03:43:33;;;;;;;19.63;11.80;;;;;;;0.92;68.09;102541.09;2557962;23;20150;-68
2022/01/16 03:44:33;;;;;;;15.90;12.77;;;;;;;1.14;67.96;102575.63;2570428;23;20211;-68
2022/01/16 03:45:33;;;;;;;15.63;12.27;;;;;;;1.13;68.10;102585.72;2570571;23;20561;-68
2022/01/16 03:46:39;;;;;;;15.10;11.73;;;;;;;1.12;67.88;102575.94;2570454;23;20186;-68
2022/01/16 03:47:40;;;;;;;16.27;11.27;;;;;;;1.17;67.91;102570.31;2570555;23;20137;-68
2022/01/16 03:48:41;;;;;;;14.37;11.97;;;;;;;0.39;67.82;102447.00;2570494;23;20598;-68
2022/01/16 03:49:41;;;;;;;14.50;11.10;;;;;;;0.97;67.86;102530.00;2570418;23;20151;-68
2022/01/16 03:50:42;;;;;;;15.40;11.80;;;;;;;1.14;67.76;102560.03;2570487;23;20162;-68
2022/01/16 03:51:45;;;;;;;16.50;12.13;;;;;;;1.10;67.77;102566.47;2570488;23;20158;-68
2022/01/16 03:52:46;;;;;;;14.23;11.15;;;;;;;0.35;67.62;102440.56;2570468;23;20149;-68
2022/01/16 03:53:46;;;;;;;14.30;11.57;;;;;;;0.98;68.10;102539.00;2569666;23;20259;-68
2022/01/16 03:54:47;;;;;;;15.60;11.73;;;;;;;0.59;68.26;102477.19;2557145;23;20166;-68
2022/01/16 03:55:48;;;;;;;15.87;12.00;;;;;;;1.18;67.77;102571.91;2557506;23;20160;-68
2022/01/16 03:56:50;;;;;;;14.95;11.38;;;;;;;1.09;68.06;102562.91;2570479;23;20597;-68
2022/01/16 03:57:50;;;;;;;16.17;11.60;;;;;;;0.25;67.71;102443.63;2570452;23;20148;-68
2022/01/16 03:58:50;;;;;;;16.10;11.53;;;;;;;0.65;67.61;102475.91;2570418;23;20245;-68
2022/01/16 03:59:51;;;;;;;17.87;12.00;;;;;;;0.70;67.61;102483.13;2570604;23;20562;-68
2022/01/16 04:00:51;;;;;;;14.70;10.87;;;;;;;1.24;67.50;102569.84;2570527;23;20162;-68
2022/01/16 04:01:53;;;;;;;15.47;12.07;;;;;;;1.22;67.58;102567.41;2570478;23;20152;-68
2022/01/16 04:02:53;;;;;;;15.40;11.35;;;;;;;0.98;67.42;102539.78;2570591;23;20155;-68
2022/01/16 04:03:55;;;;;;;16.47;10.93;;;;;;;1.31;67.78;102572.88;2570380;23;20172;-68
2022/01/16 04:04:55;;;;;;;14.70;11.10;;;;;;;1.28;67.53;102570.81;2570433;23;20159;-68
2022/01/16 04:05:56;;;;;;;14.57;10.93;;;;;;;0.76;67.22;102479.09;2570463;23;20153;-67
2022/01/16 04:06:57;;;;;;;14.47;11.27;;;;;;;1.20;66.71;102556.03;2570476;23;20168;-67
2022/01/16 04:07:59;;;;;;;15.90;11.38;;;;;;;1.51;66.80;102588.59;2571144;23;20149;-67
2022/01/16 04:09:01;;;;;;;15.45;11.13;;;;;;;1.49;66.35;102590.84;2571182;23;20159;-68
2022/01/16 04:10:07;;;;;;;15.85;11.32;;;;;;;1.45;66.81;102587.94;2571339;23;20152;-68
2022/01/16 04:11:08;;;;;;;16.90;11.23;;;;;;;1.25;66.61;102555.84;2571020;23;20151;-67
2022/01/16 04:12:10;;;;;;;14.57;11.07;;;;;;;1.48;66.83;102581.03;2571210;23;20235;-68
2022/01/16 04:13:11;;;;;;;15.48;11.13;;;;;;;1.50;66.53;102585.03;2571160;23;20604;-67
2022/01/16 04:14:21;;;;;;;13.90;11.27;;;;;;;0.96;66.70;102495.66;2557975;23;20157;-68
2022/01/16 04:15:31;;;;;;;13.82;10.68;;;;;;;1.05;66.46;102531.13;2560177;23;20145;-68
2022/01/16 04:16:32;;;;;;;16.15;10.93;;;;;;;1.46;66.97;102578.66;2571214;23;20139;-68
2022/01/16 04:17:32;;;;;;;14.53;11.07;;;;;;;0.79;67.02;102478.47;2570390;23;20159;-68
2022/01/16 04:18:33;;;;;;;16.43;11.00;;;;;;;1.46;66.95;102570.44;2570522;23;20371;-68
2022/01/16 04:19:35;;;;;;;15.63;11.23;;;;;;;1.43;66.70;102586.66;2571267;23;20588;-68
2022/01/16 04:20:35;;;;;;;17.13;11.43;;;;;;;1.15;66.93;102541.72;2571359;23;20148;-68
2022/01/16 04:21:36;;;;;;;14.07;11.40;;;;;;;1.44;66.98;102586.34;2557897;23;20634;-68
2022/01/16 04:22:38;;;;;;;15.47;11.57;;;;;;;0.89;66.47;102480.88;2558083;23;20164;-67
2022/01/16 04:23:39;;;;;;;14.95;10.73;;;;;;;1.52;66.67;102562.88;2571146;23;20180;-68
2022/01/16 04:24:40;;;;;;;14.80;11.37;;;;;;;1.54;66.88;102590.69;2571118;23;20511;-68
2022/01/16 04:25:40;;;;;;;14.73;11.13;;;;;;;1.01;66.62;102516.50;2571284;23;20156;-68
2022/01/16 04:26:41;;;;;;;15.67;10.97;;;;;;;1.44;66.97;102588.28;2571211;23;20232;-67
2022/01/16 04:27:42;;;;;;;14.80;10.73;;;;;;;0.67;66.76;102478.31;2557852;23;20156;-68
2022/01/16 04:28:43;;;;;;;14.65;10.55;;;;;;;0.69;66.48;102470.59;2558004;23;20245;-68
2022/01/16 04:29:43;;;;;;;15.67;11.47;;;;;;;1.35;66.88;102580.09;2571112;23;20222;-68
2022/01/16 04:30:44;;;;;;;15.17;11.30;;;;;;;1.31;66.88;102568.22;2571205;23;20538;-68
2022/01/16 04:31:45;;;;;;;16.98;11.40;;;;;;;1.36;66.92;102598.09;2571357;23;20155;-68
2022/01/16 04:32:46;;;;;;;13.63;11.27;;;;;;;1.35;67.35;102592.97;2571175;23;20653;-68
2022/01/16 04:33:46;;;;;;;14.50;11.03;;;;;;;0.90;66.84;102510.59;2571118;23;20164;-68
2022/01/16 04:34:47;;;;;;;13.60;10.73;;;;;;;1.43;66.58;102598.41;2571078;23;20561;-68
2022/01/16 04:35:47;;;;;;;15.93;11.00;;;;;;;1.44;66.65;102593.75;2571083;23;20177;-68
2022/01/16 04:36:48;;;;;;;15.87;11.83;;;;;;;1.45;66.83;102593.41;2571139;23;20148;-68
2022/01/16 04:37:49;;;;;;;14.13;10.93;;;;;;;0.57;66.86;102476.69;2571051;23;20215;-68
2022/01/16 04:38:51;;;;;;;16.57;11.80;;;;;;;0.87;66.86;102508.50;2571152;23;20542;-68
2022/01/16 04:39:59;;;;;;;15.25;11.27;;;;;;;0.98;66.88;102525.34;2571117;23;20162;-68
2022/01/16 04:43:53;;;;;;;14.00;11.63;;;;;;;1.24;66.77;102576.09;2571246;23;20590;-68
2022/01/16 04:44:53;;;;;;;16.52;12.02;;;;;;;1.30;66.90;102590.38;2571126;23;20140;-67
2022/01/16 04:45:54;;;;;;;18.00;11.20;;;;;;;1.32;66.65;102582.66;2571160;23;20159;-68
2022/01/16 04:46:55;;;;;;;14.70;11.20;;;;;;;1.30;67.21;102582.19;2571140;23;20155;-68
2022/01/16 04:47:55;;;;;;;16.55;12.23;;;;;;;1.14;66.82;102553.78;2570982;23;20200;-67
2022/01/16 04:48:57;;;;;;;14.00;11.17;;;;;;;1.45;66.84;102581.69;2557841;23;20157;-68
2022/01/16 04:49:58;;;;;;;16.70;11.98;;;;;;;1.12;66.60;102539.63;2558227;23;20149;-68
2022/01/16 04:50:58;;;;;;;14.90;11.90;;;;;;;1.20;67.45;102563.41;2571217;23;20148;-68
2022/01/16 04:51:59;;;;;;;16.43;11.13;;;;;;;1.45;66.68;102574.28;2570981;23;20657;-68
2022/01/16 04:52:59;;;;;;;15.53;10.93;;;;;;;1.42;66.67;102568.66;2571146;23;20156;-68
2022/01/16 04:54:00;;;;;;;15.17;11.60;;;;;;;1.51;66.43;102577.66;2571186;23;20148;-68
2022/01/16 04:55:00;;;;;;;14.53;11.10;;;;;;;1.46;66.70;102578.66;2557749;23;20220;-68
2022/01/16 04:56:01;;;;;;;15.40;11.50;;;;;;;1.38;66.78;102567.69;2557961;23;20636;-68
2022/01/16 04:57:02;;;;;;;14.90;11.20;;;;;;;1.36;66.84;102564.50;2571007;23;20160;-68
2022/01/16 04:58:02;;;;;;;15.30;11.50;;;;;;;1.08;66.96;102519.56;2571059;23;20157;-68
2022/01/16 04:59:03;;;;;;;16.97;12.57;;;;;;;1.39;66.47;102559.19;2571310;23;20149;-68
2022/01/16 05:00:06;;;;;;;16.67;12.43;;;;;;;0.59;66.83;102428.09;2571087;23;20183;-68
2022/01/16 05:01:07;;;;;;;19.50;12.45;;;;;;;1.41;66.58;102565.16;2571010;23;20187;-68
2022/01/16 05:02:08;;;;;;;17.42;12.32;;;;;;;1.06;66.80;102500.78;2571267;23;20206;-68
2022/01/16 05:03:09;;;;;;;14.93;12.17;;;;;;;1.16;66.80;102518.75;2571070;23;20282;-68
2022/01/16 05:04:10;;;;;;;14.35;11.18;;;;;;;1.37;66.85;102568.84;2571103;23;20288;-68
2022/01/16 05:05:11;;;;;;;15.30;11.93;;;;;;;1.38;66.62;102565.78;2571174;23;20287;-68
2022/01/16 05:06:11;;;;;;;14.73;11.37;;;;;;;1.29;66.27;102528.69;2570925;23;20149;-68
2022/01/16 05:07:12;;;;;;;15.57;11.90;;;;;;;1.47;65.88;102552.94;2571087;23;20383;-68
2022/01/16 05:08:12;;;;;;;15.60;12.33;;;;;;;1.47;66.28;102550.19;2571046;23;20225;-68
2022/01/16 05:09:13;;;;;;;17.37;12.43;;;;;;;0.39;66.04;102379.63;2570992;23;20159;-68
2022/01/16 05:10:13;;;;;;;17.37;12.47;;;;;;;1.38;66.21;102557.59;2570986;23;20199;-68
2022/01/16 05:11:17;;;;;;;15.20;12.23;;;;;;;0.66;66.01;102425.66;2570606;23;20192;-68
2022/01/16 05:12:26;;;;;;;17.02;12.73;;;;;;;0.97;66.29;102474.59;2570398;23;20149;-68
2022/01/16 05:17:12;;;;;;;16.30;12.45;;;;;;;1.34;66.85;102553.13;2570505;23;20136;-68
2022/01/16 05:18:12;;;;;;;17.47;13.23;;;;;;;1.39;66.60;102561.13;2570215;23;20149;-68
2022/01/16 05:19:16;;;;;;;16.93;13.37;;;;;;;0.46;66.27;102418.13;2569633;23;20157;-68
2022/01/16 05:20:17;;;;;;;18.35;14.02;;;;;;;1.50;66.89;102556.94;2570322;23;20153;-68
2022/01/16 05:21:17;;;;;;;18.00;14.48;;;;;;;1.33;66.64;102533.19;2570457;23;20151;-68
2022/01/16 05:22:18;;;;;;;18.23;14.70;;;;;;;1.44;66.61;102550.03;2570265;23;20223;-68
2022/01/16 05:23:18;;;;;;;18.17;14.10;;;;;;;1.35;67.00;102558.22;2569473;23;20156;-68
2022/01/16 05:24:19;;;;;;;19.77;14.07;;;;;;;0.71;66.79;102439.16;2557018;23;20184;-68